Varennes, Canada
Current Conditions -  °F | °C
As of 11:00 PM on Thursday 27 Nov 2014 (Local Time) from CYHU Reporting Station
Overcast Overcast  
Wind Chill: 28°   Ceiling: 4400
Heat Index: 28°   Visibility: 9mi
Dew Point: 16°   Wind: 2mph
Humidity: 59%   Direction: 340°NNW
Pressure: 30.06"   Gusts: NA
Location:  45.68°N, 73.43°W
Report Text: CYHU 280400Z AUTO 34002KT 9SM OVC044 M02/M09 A3006 RMK SLP180
Loading
Personal Weather Stations






























Interactive Weather Map New forecast layout! Learn more

10-Day Weather Forecast

Advertisements
Track Severe Weather on mobile